createdAt,value
2018-03-31T00:00:03.380Z,1.687
2018-03-31T00:01:04.178Z,1.687
2018-03-31T00:02:03.775Z,1.625
2018-03-31T00:03:03.612Z,1.625
2018-03-31T00:04:03.518Z,1.625
2018-03-31T00:05:04.112Z,1.562
2018-03-31T00:06:03.698Z,1.5
2018-03-31T00:07:03.378Z,1.5
2018-03-31T00:08:03.922Z,1.562
2018-03-31T00:09:03.795Z,1.437
2018-03-31T00:10:03.489Z,1.375
2018-03-31T00:11:04.150Z,1.312
2018-03-31T00:12:03.796Z,1.437
2018-03-31T00:13:03.471Z,1.562
2018-03-31T00:14:03.877Z,1.5
2018-03-31T00:15:03.668Z,1.437
2018-03-31T00:16:03.831Z,1.375
2018-03-31T00:17:03.479Z,1.312
2018-03-31T00:18:03.141Z,1.25
2018-03-31T00:19:04.640Z,1.25
2018-03-31T00:20:05.497Z,1.25
2018-03-31T00:21:04.069Z,1.25
2018-03-31T00:22:03.750Z,1.125
2018-03-31T00:23:03.552Z,1.125
2018-03-31T00:24:03.585Z,1.187
2018-03-31T00:25:03.395Z,1.25
2018-03-31T00:26:03.349Z,1.187
2018-03-31T00:27:03.934Z,1.187
2018-03-31T00:28:03.712Z,1.125
2018-03-31T00:29:03.318Z,1.187
2018-03-31T00:30:04.110Z,1.187
2018-03-31T00:31:03.769Z,1.187
2018-03-31T00:32:04.230Z,1.187
2018-03-31T00:33:03.751Z,1.187
2018-03-31T00:34:03.395Z,1.125
2018-03-31T00:35:04.045Z,1.062
2018-03-31T00:36:03.672Z,1.187
2018-03-31T00:37:03.275Z,1.312
2018-03-31T00:38:03.922Z,1.312
2018-03-31T00:39:04.033Z,1.25
2018-03-31T00:40:03.684Z,1.187
2018-03-31T00:41:03.679Z,1.125
2018-03-31T00:42:03.283Z,1.25
2018-03-31T00:43:03.844Z,1.25
2018-03-31T00:44:04.539Z,1.187
2018-03-31T00:45:03.289Z,1.125
2018-03-31T00:46:03.848Z,1.187
2018-03-31T00:47:03.492Z,1.187
2018-03-31T00:48:04.053Z,1.062
2018-03-31T00:49:03.765Z,1.187
2018-03-31T00:50:03.372Z,1.125
2018-03-31T00:51:03.986Z,1.062
2018-03-31T00:52:03.769Z,1.125
2018-03-31T00:53:03.475Z,1.187
2018-03-31T00:54:03.242Z,1.187
2018-03-31T00:55:03.872Z,1.062
2018-03-31T00:56:03.388Z,1.062
2018-03-31T00:57:03.439Z,1
2018-03-31T00:58:03.229Z,0.875
2018-03-31T00:59:03.830Z,0.937
2018-03-31T01:00:03.622Z,0.875
2018-03-31T01:01:03.937Z,0.937
2018-03-31T01:02:03.542Z,0.875
2018-03-31T01:03:03.422Z,0.75
2018-03-31T01:04:03.990Z,0.812
2018-03-31T01:05:03.759Z,0.812
2018-03-31T01:06:03.449Z,0.687
2018-03-31T01:07:03.079Z,0.687
2018-03-31T01:08:03.704Z,0.75
2018-03-31T01:09:03.551Z,0.75
2018-03-31T01:10:03.163Z,0.75
2018-03-31T01:11:03.800Z,0.687
2018-03-31T01:12:03.344Z,0.75
2018-03-31T01:13:03.951Z,0.812
2018-03-31T01:14:03.627Z,0.812
2018-03-31T01:15:03.475Z,0.812
2018-03-31T01:16:03.923Z,0.937
2018-03-31T01:17:03.621Z,0.875
2018-03-31T01:18:03.646Z,0.812
2018-03-31T01:19:03.244Z,0.812
2018-03-31T01:20:03.855Z,0.812
2018-03-31T01:21:03.388Z,0.875
2018-03-31T01:22:04.061Z,0.875
2018-03-31T01:23:03.733Z,0.75
2018-03-31T01:24:03.695Z,0.687
2018-03-31T01:25:03.342Z,0.75
2018-03-31T01:26:03.133Z,0.812
2018-03-31T01:27:03.681Z,0.812
2018-03-31T01:28:03.279Z,0.812
2018-03-31T01:29:03.946Z,0.937
2018-03-31T01:30:05.002Z,0.937
2018-03-31T01:31:03.588Z,0.812
2018-03-31T01:32:03.332Z,0.812
2018-03-31T01:33:03.982Z,0.875
2018-03-31T01:34:03.626Z,0.812
2018-03-31T01:35:03.266Z,0.75
2018-03-31T01:36:03.844Z,0.75
2018-03-31T01:37:03.609Z,0.812
2018-03-31T01:38:03.238Z,0.812
2018-03-31T01:39:04.125Z,0.687
2018-03-31T01:40:04.059Z,0.625
2018-03-31T01:41:03.627Z,0.562
2018-03-31T01:42:03.222Z,0.437
2018-03-31T01:43:03.667Z,0.5
2018-03-31T01:44:03.294Z,0.437
2018-03-31T01:45:03.956Z,0.375
2018-03-31T01:46:03.439Z,0.375
2018-03-31T01:47:04.032Z,0.375
2018-03-31T01:48:03.646Z,0.437
2018-03-31T01:49:03.799Z,0.5
2018-03-31T01:50:03.336Z,0.562
2018-03-31T01:51:04.081Z,0.625
2018-03-31T01:52:03.570Z,0.625
2018-03-31T01:53:03.122Z,0.625
2018-03-31T01:54:03.217Z,0.625
2018-03-31T01:55:03.676Z,0.562
2018-03-31T01:56:03.163Z,0.625
2018-03-31T01:57:03.761Z,0.625
2018-03-31T01:58:03.258Z,0.75
2018-03-31T01:59:03.655Z,0.75
2018-03-31T02:00:03.251Z,0.687
2018-03-31T02:01:04.135Z,0.75
2018-03-31T02:02:03.557Z,0.75
2018-03-31T02:03:03.036Z,0.687
2018-03-31T02:04:03.761Z,0.687
2018-03-31T02:05:03.566Z,0.812
2018-03-31T02:06:03.243Z,0.875
2018-03-31T02:07:03.813Z,0.875
2018-03-31T02:08:04.443Z,0.937
2018-03-31T02:09:04.139Z,0.812
2018-03-31T02:10:03.517Z,0.75
2018-03-31T02:11:03.846Z,0.875
2018-03-31T02:12:03.394Z,0.875
2018-03-31T02:13:03.906Z,0.812
2018-03-31T02:14:03.411Z,0.812
2018-03-31T02:15:03.929Z,0.75
2018-03-31T02:16:03.548Z,0.75
2018-03-31T02:17:03.311Z,0.75
2018-03-31T02:18:03.730Z,0.75
2018-03-31T02:19:03.411Z,0.75
2018-03-31T02:20:03.854Z,0.687
2018-03-31T02:21:03.727Z,0.625
2018-03-31T02:22:03.431Z,0.687
2018-03-31T02:23:03.036Z,0.687
2018-03-31T02:24:03.610Z,0.625
2018-03-31T02:25:03.351Z,0.625
2018-03-31T02:26:03.879Z,0.625
2018-03-31T02:27:03.405Z,0.625
2018-03-31T02:28:03.318Z,0.625
2018-03-31T02:29:03.833Z,0.625
2018-03-31T02:30:08.365Z,0.625
2018-03-31T02:31:03.737Z,0.625
2018-03-31T02:32:03.374Z,0.562
2018-03-31T02:33:03.990Z,0.5
2018-03-31T02:34:03.593Z,0.437
2018-03-31T02:35:03.334Z,0.437
2018-03-31T02:36:04.079Z,0.375
2018-03-31T02:37:03.680Z,0.375
2018-03-31T02:38:03.226Z,0.5
2018-03-31T02:39:04.039Z,0.437
2018-03-31T02:40:03.440Z,0.5
2018-03-31T02:41:03.320Z,0.437
2018-03-31T02:42:03.179Z,0.5
2018-03-31T02:43:03.207Z,0.437
2018-03-31T02:44:03.715Z,0.437
2018-03-31T02:45:04.239Z,0.5
2018-03-31T02:46:03.662Z,0.437
2018-03-31T02:47:03.349Z,0.437
2018-03-31T02:48:03.831Z,0.375
2018-03-31T02:49:03.332Z,0.312
2018-03-31T02:50:03.869Z,0.375
2018-03-31T02:51:03.473Z,0.375
2018-03-31T02:52:03.220Z,0.375
2018-03-31T02:53:03.703Z,0.375
2018-03-31T02:54:03.401Z,0.312
2018-03-31T02:55:03.982Z,0.375
2018-03-31T02:56:03.676Z,0.375
2018-03-31T02:57:03.082Z,0.375
2018-03-31T02:58:03.538Z,0.375
2018-03-31T02:59:03.252Z,0.25
2018-03-31T03:00:03.881Z,0.312
2018-03-31T03:01:03.426Z,0.312
2018-03-31T03:02:03.110Z,0.25
2018-03-31T03:03:03.794Z,0.187
2018-03-31T03:04:03.373Z,0.25
2018-03-31T03:05:04.891Z,0.25
2018-03-31T03:06:03.504Z,0.312
2018-03-31T03:07:04.072Z,0.375
2018-03-31T03:08:03.639Z,0.437
2018-03-31T03:09:03.300Z,0.437
2018-03-31T03:10:03.781Z,0.375
2018-03-31T03:11:03.639Z,0.437
2018-03-31T03:12:03.225Z,0.437
2018-03-31T03:13:03.639Z,0.437
2018-03-31T03:14:03.159Z,0.437
2018-03-31T03:15:03.949Z,0.437
2018-03-31T03:16:03.312Z,0.437
2018-03-31T03:17:03.954Z,0.437
2018-03-31T03:18:03.474Z,0.437
2018-03-31T03:19:04.028Z,0.437
2018-03-31T03:20:03.812Z,0.437
2018-03-31T03:21:03.251Z,0.375
2018-03-31T03:22:03.706Z,0.437
2018-03-31T03:23:03.204Z,0.437
2018-03-31T03:24:03.800Z,0.5
2018-03-31T03:25:03.508Z,0.5
2018-03-31T03:26:03.090Z,0.5
2018-03-31T03:27:03.584Z,0.562
2018-03-31T03:28:03.112Z,0.625
2018-03-31T03:29:03.689Z,0.625
2018-03-31T03:30:03.392Z,0.625
2018-03-31T03:31:04.873Z,0.625
2018-03-31T03:32:03.268Z,0.625
2018-03-31T03:33:03.832Z,0.687
2018-03-31T03:34:03.392Z,0.75
2018-03-31T03:35:03.964Z,0.75
2018-03-31T03:36:03.392Z,0.812
2018-03-31T03:37:03.921Z,0.812
2018-03-31T03:38:03.414Z,0.812
2018-03-31T03:39:04.160Z,0.75
2018-03-31T03:40:03.776Z,0.812
2018-03-31T03:41:03.472Z,0.75
2018-03-31T03:42:04.121Z,0.812
2018-03-31T03:43:03.670Z,0.875
2018-03-31T03:44:03.181Z,0.812
2018-03-31T03:45:03.789Z,0.875
2018-03-31T03:46:03.675Z,0.875
2018-03-31T03:47:03.726Z,0.937
2018-03-31T03:48:03.247Z,0.937
2018-03-31T03:49:03.643Z,0.937
2018-03-31T03:50:03.379Z,0.937
2018-03-31T03:51:03.795Z,0.937
2018-03-31T03:52:03.439Z,0.937
2018-03-31T03:53:03.973Z,0.937
2018-03-31T03:54:03.390Z,0.937
2018-03-31T03:55:03.823Z,0.937
2018-03-31T03:56:03.445Z,0.937
2018-03-31T03:57:03.954Z,0.937
2018-03-31T03:58:03.454Z,0.937
2018-03-31T03:59:03.964Z,1
2018-03-31T04:00:03.491Z,1
2018-03-31T04:01:03.328Z,1
2018-03-31T04:02:03.644Z,1
2018-03-31T04:03:03.283Z,1.062
2018-03-31T04:04:03.834Z,1.062
2018-03-31T04:05:03.695Z,1.062
2018-03-31T04:06:03.163Z,1.062
2018-03-31T04:07:03.716Z,1.062
2018-03-31T04:08:03.380Z,1.125
2018-03-31T04:09:04.127Z,1.125
2018-03-31T04:10:03.612Z,1.125
2018-03-31T04:11:03.419Z,1.062
2018-03-31T04:12:03.728Z,1.062
2018-03-31T04:13:03.272Z,1.125
2018-03-31T04:14:03.376Z,1.125
2018-03-31T04:15:04.006Z,1.125
2018-03-31T04:16:03.613Z,1.125
2018-03-31T04:17:03.286Z,1.187
2018-03-31T04:18:04.396Z,1.187
2018-03-31T04:19:03.681Z,1.25
2018-03-31T04:20:03.272Z,1.25
2018-03-31T04:21:03.286Z,1.187
2018-03-31T04:22:03.758Z,1.187
2018-03-31T04:23:03.421Z,1.187
2018-03-31T04:24:04.071Z,1.187
2018-03-31T04:25:04.183Z,1.125
2018-03-31T04:26:04.860Z,1.187
2018-03-31T04:27:03.222Z,1.187
2018-03-31T04:28:03.776Z,1.187
2018-03-31T04:29:03.791Z,1.187
2018-03-31T04:30:03.367Z,1.25
2018-03-31T04:31:03.941Z,1.25
2018-03-31T04:32:03.493Z,1.25
2018-03-31T04:33:03.171Z,1.25
2018-03-31T04:34:03.810Z,1.187
2018-03-31T04:35:03.372Z,1.25
2018-03-31T04:36:03.294Z,1.25
2018-03-31T04:37:03.855Z,1.25
2018-03-31T04:38:03.448Z,1.25
2018-03-31T04:39:04.029Z,1.312
2018-03-31T04:40:03.665Z,1.312
2018-03-31T04:41:03.370Z,1.312
2018-03-31T04:42:03.939Z,1.312
2018-03-31T04:43:03.418Z,1.312
2018-03-31T04:44:03.325Z,1.312
2018-03-31T04:45:04.405Z,1.25
2018-03-31T04:46:03.850Z,1.25
2018-03-31T04:47:03.256Z,1.312
2018-03-31T04:48:03.720Z,1.312
2018-03-31T04:49:03.292Z,1.312
2018-03-31T04:50:03.868Z,1.312
2018-03-31T04:51:03.441Z,1.312
2018-03-31T04:52:04.137Z,1.312
2018-03-31T04:53:03.907Z,1.312
2018-03-31T04:54:03.510Z,1.312
2018-03-31T04:55:03.166Z,1.375
2018-03-31T04:56:03.609Z,1.312
2018-03-31T04:57:03.296Z,1.312
2018-03-31T04:58:03.888Z,1.312
2018-03-31T04:59:03.558Z,1.375
2018-03-31T05:00:03.261Z,1.375
2018-03-31T05:01:04.165Z,1.375
2018-03-31T05:02:03.741Z,1.375
2018-03-31T05:03:03.409Z,1.375
2018-03-31T05:04:03.841Z,1.375
2018-03-31T05:05:03.892Z,1.437
2018-03-31T05:06:03.325Z,1.437
2018-03-31T05:07:03.810Z,1.437
2018-03-31T05:08:03.480Z,1.437
2018-03-31T05:09:03.227Z,1.437
2018-03-31T05:10:04.095Z,1.437
2018-03-31T05:11:03.467Z,1.437
2018-03-31T05:12:03.980Z,1.437
2018-03-31T05:13:03.475Z,1.5
2018-03-31T05:14:03.979Z,1.5
2018-03-31T05:15:03.665Z,1.5
2018-03-31T05:16:03.352Z,1.5
2018-03-31T05:17:03.215Z,1.5
2018-03-31T05:18:03.759Z,1.5
2018-03-31T05:19:03.420Z,1.562
2018-03-31T05:20:04.210Z,1.562
2018-03-31T05:21:03.647Z,1.562
2018-03-31T05:22:03.934Z,1.562
2018-03-31T05:23:03.345Z,1.562
2018-03-31T05:24:03.905Z,1.625
2018-03-31T05:25:03.343Z,1.562
2018-03-31T05:26:03.767Z,1.625
2018-03-31T05:27:03.293Z,1.625
2018-03-31T05:28:03.808Z,1.687
2018-03-31T05:29:03.259Z,1.687
2018-03-31T05:30:03.663Z,1.687
2018-03-31T05:31:03.592Z,1.687
2018-03-31T05:32:03.402Z,1.687
2018-03-31T05:33:03.756Z,1.687
2018-03-31T05:34:03.276Z,1.687
2018-03-31T05:35:03.745Z,1.687
2018-03-31T05:36:03.452Z,1.75
2018-03-31T05:37:03.935Z,1.75
2018-03-31T05:38:03.458Z,1.75
2018-03-31T05:39:04.094Z,1.75
2018-03-31T05:40:03.551Z,1.75
2018-03-31T05:41:03.467Z,1.75
2018-03-31T05:42:03.960Z,1.75
2018-03-31T05:43:03.541Z,1.75
2018-03-31T05:44:03.182Z,1.75
2018-03-31T05:45:03.787Z,1.812
2018-03-31T05:46:03.290Z,1.75
2018-03-31T05:47:03.823Z,1.812
2018-03-31T05:48:03.258Z,1.812
2018-03-31T05:49:03.780Z,1.812
2018-03-31T05:50:03.489Z,1.812
2018-03-31T05:51:03.402Z,1.812
2018-03-31T05:52:03.787Z,1.812
2018-03-31T05:53:03.350Z,1.812
2018-03-31T05:54:03.878Z,1.875
2018-03-31T05:55:03.493Z,1.875
2018-03-31T05:56:03.980Z,1.812
2018-03-31T05:57:03.533Z,1.687
2018-03-31T05:58:03.034Z,1.5
2018-03-31T05:59:03.569Z,1.437
2018-03-31T06:00:04.674Z,1.312
2018-03-31T06:01:03.476Z,1.187
2018-03-31T06:02:04.000Z,1.187
2018-03-31T06:03:03.564Z,1.187
2018-03-31T06:04:04.069Z,1.187
2018-03-31T06:05:03.647Z,1.187
2018-03-31T06:06:03.096Z,1.312
2018-03-31T06:07:03.564Z,1.375
2018-03-31T06:08:05.017Z,1.375
2018-03-31T06:09:03.405Z,1.25
2018-03-31T06:10:04.180Z,1.312
2018-03-31T06:11:04.560Z,1.312
2018-03-31T06:12:03.888Z,1.25
2018-03-31T06:13:03.920Z,1.25
2018-03-31T06:14:03.348Z,1.25
2018-03-31T06:15:03.907Z,1.312
2018-03-31T06:16:03.597Z,1.187
2018-03-31T06:17:04.124Z,1.25
2018-03-31T06:18:03.661Z,1.25
2018-03-31T06:19:03.324Z,1.25
2018-03-31T06:20:03.804Z,1.25
2018-03-31T06:21:03.575Z,1.25
2018-03-31T06:22:03.212Z,1.187
2018-03-31T06:23:04.720Z,1.25
2018-03-31T06:24:03.225Z,1.187
2018-03-31T06:25:03.651Z,1.187
2018-03-31T06:26:03.358Z,1.25
2018-03-31T06:27:03.760Z,1.25
2018-03-31T06:28:03.307Z,1.25
2018-03-31T06:29:03.559Z,1.312
2018-03-31T06:30:03.437Z,1.312
2018-03-31T06:31:03.993Z,1.375
2018-03-31T06:32:03.429Z,1.437
2018-03-31T06:33:04.007Z,1.437
2018-03-31T06:34:03.403Z,1.562
2018-03-31T06:35:03.966Z,1.562
2018-03-31T06:36:03.542Z,1.625
2018-03-31T06:37:03.188Z,1.625
2018-03-31T06:38:03.803Z,1.687
2018-03-31T06:39:03.457Z,1.625
2018-03-31T06:40:03.266Z,1.687
2018-03-31T06:41:03.120Z,1.625
2018-03-31T06:42:03.593Z,1.5
2018-03-31T06:43:03.219Z,1.562
2018-03-31T06:44:03.698Z,1.562
2018-03-31T06:45:03.877Z,1.562
2018-03-31T06:46:03.174Z,1.562
2018-03-31T06:47:03.594Z,1.5
2018-03-31T06:48:03.514Z,1.625
2018-03-31T06:49:03.877Z,1.562
2018-03-31T06:50:03.310Z,1.687
2018-03-31T06:51:03.853Z,1.687
2018-03-31T06:52:03.372Z,1.75
2018-03-31T06:53:03.973Z,1.75
2018-03-31T06:54:03.480Z,1.937
2018-03-31T06:55:04.053Z,1.937
2018-03-31T06:56:03.545Z,2
2018-03-31T06:57:03.266Z,1.937
2018-03-31T06:58:03.825Z,1.875
2018-03-31T06:59:03.405Z,1.875
2018-03-31T07:00:03.942Z,1.937
2018-03-31T07:01:03.428Z,1.875
2018-03-31T07:02:03.950Z,1.937
2018-03-31T07:03:03.478Z,1.875
2018-03-31T07:04:04.015Z,1.812
2018-03-31T07:05:03.754Z,1.812
2018-03-31T07:06:03.276Z,1.812
2018-03-31T07:07:03.925Z,1.875
2018-03-31T07:08:03.441Z,1.875
2018-03-31T07:09:03.870Z,1.812
2018-03-31T07:10:03.296Z,1.812
2018-03-31T07:11:03.672Z,1.75
2018-03-31T07:12:03.150Z,1.75
2018-03-31T07:13:03.595Z,1.75
2018-03-31T07:14:03.142Z,1.75
2018-03-31T07:15:03.703Z,1.75
2018-03-31T07:16:03.371Z,1.75
2018-03-31T07:17:04.933Z,1.875
2018-03-31T07:18:03.722Z,1.812
2018-03-31T07:19:03.392Z,1.875
2018-03-31T07:20:04.333Z,1.937
2018-03-31T07:21:03.778Z,1.875
2018-03-31T07:22:03.262Z,1.812
2018-03-31T07:23:03.908Z,1.875
2018-03-31T07:24:03.612Z,1.875
2018-03-31T07:25:03.192Z,1.875
2018-03-31T07:26:05.722Z,1.875
2018-03-31T07:27:03.325Z,1.937
2018-03-31T07:29:04.422Z,2.062
2018-03-31T07:30:04.184Z,2.125
2018-03-31T07:31:04.003Z,2.125
2018-03-31T07:32:03.795Z,2.25
2018-03-31T07:33:03.320Z,2.25
2018-03-31T07:34:03.132Z,2.375
2018-03-31T07:35:03.706Z,2.375
2018-03-31T07:36:03.396Z,2.375
2018-03-31T07:37:03.911Z,2.5
2018-03-31T07:38:03.418Z,2.437
2018-03-31T07:39:04.199Z,2.437
2018-03-31T07:40:03.757Z,2.562
2018-03-31T07:41:03.288Z,2.625
2018-03-31T07:42:03.666Z,2.75
2018-03-31T07:43:03.129Z,2.687
2018-03-31T07:44:03.578Z,2.812
2018-03-31T07:45:03.177Z,2.875
2018-03-31T07:46:04.680Z,2.875
2018-03-31T07:47:04.283Z,3
2018-03-31T07:48:03.746Z,3.062
2018-03-31T07:49:03.399Z,3
2018-03-31T07:50:03.760Z,3
2018-03-31T07:51:03.233Z,3.062
2018-03-31T07:52:08.756Z,3
2018-03-31T07:53:03.342Z,2.937
2018-03-31T07:54:03.918Z,3
2018-03-31T07:55:03.365Z,2.875
2018-03-31T07:56:03.858Z,2.875
2018-03-31T07:57:03.479Z,2.937
2018-03-31T07:58:03.932Z,3
2018-03-31T07:59:03.450Z,2.937
2018-03-31T08:00:04.736Z,3
2018-03-31T08:01:03.364Z,3
2018-03-31T08:02:03.799Z,3
2018-03-31T08:03:03.259Z,3
2018-03-31T08:04:03.834Z,3.062
2018-03-31T08:05:03.779Z,3.062
2018-03-31T08:06:03.156Z,3.062
2018-03-31T08:07:03.644Z,3
2018-03-31T08:08:03.213Z,3.062
2018-03-31T08:09:04.015Z,3
2018-03-31T08:10:03.577Z,3.062
2018-03-31T08:11:03.391Z,3.187
2018-03-31T08:12:03.977Z,3.25
2018-03-31T08:13:03.340Z,3.312
2018-03-31T08:14:03.811Z,3.375
2018-03-31T08:15:03.717Z,3.375
2018-03-31T08:16:03.054Z,3.5
2018-03-31T08:17:03.819Z,3.687
2018-03-31T08:18:03.399Z,3.75
2018-03-31T08:19:04.862Z,3.687
2018-03-31T08:20:03.348Z,3.687
2018-03-31T08:21:03.289Z,3.875
2018-03-31T08:22:04.721Z,3.937
2018-03-31T08:23:03.179Z,3.875
2018-03-31T08:24:03.707Z,3.812
2018-03-31T08:25:03.779Z,3.75
2018-03-31T08:26:03.397Z,3.687
2018-03-31T08:27:03.766Z,3.625
2018-03-31T08:28:03.345Z,3.625
2018-03-31T08:29:03.766Z,3.625
2018-03-31T08:30:03.884Z,3.625
2018-03-31T08:31:03.443Z,3.75
2018-03-31T08:32:04.068Z,3.812
2018-03-31T08:33:03.510Z,3.875
2018-03-31T08:34:03.260Z,3.812
2018-03-31T08:35:03.771Z,4
2018-03-31T08:36:03.252Z,3.937
2018-03-31T08:37:03.829Z,3.937
2018-03-31T08:38:03.334Z,3.937
2018-03-31T08:39:03.942Z,3.875
2018-03-31T08:40:03.520Z,3.875
2018-03-31T08:41:03.960Z,3.812
2018-03-31T08:42:03.301Z,3.687
2018-03-31T08:43:03.652Z,3.687
2018-03-31T08:44:03.224Z,3.625
2018-03-31T08:45:03.940Z,3.562
2018-03-31T08:46:03.356Z,3.562
2018-03-31T08:47:03.955Z,3.562
2018-03-31T08:48:04.038Z,3.5
2018-03-31T08:49:03.550Z,3.5
2018-03-31T08:50:04.229Z,3.5
2018-03-31T08:51:03.731Z,3.5
2018-03-31T08:52:03.290Z,3.5
2018-03-31T08:53:03.855Z,3.5
2018-03-31T08:54:03.344Z,3.437
2018-03-31T08:55:03.816Z,3.437
2018-03-31T08:56:03.472Z,3.437
2018-03-31T08:57:03.882Z,3.5
2018-03-31T08:58:03.301Z,3.562
2018-03-31T08:59:03.746Z,3.562
2018-03-31T09:00:03.636Z,3.562
2018-03-31T09:01:03.555Z,3.562
2018-03-31T09:02:03.166Z,3.5
2018-03-31T09:03:03.621Z,3.5
2018-03-31T09:04:03.195Z,3.5
2018-03-31T09:05:03.828Z,3.5
2018-03-31T09:06:03.273Z,3.562
2018-03-31T09:07:03.804Z,3.562
2018-03-31T09:08:03.208Z,3.625
2018-03-31T09:09:04.734Z,3.625
2018-03-31T09:10:03.206Z,3.562
2018-03-31T09:11:03.909Z,3.562
2018-03-31T09:12:03.452Z,3.625
2018-03-31T09:13:03.914Z,3.625
2018-03-31T09:14:03.345Z,3.625
2018-03-31T09:15:03.994Z,3.625
2018-03-31T09:16:03.559Z,3.625
2018-03-31T09:17:03.311Z,3.562
2018-03-31T09:18:03.701Z,3.562
2018-03-31T09:19:03.182Z,3.437
2018-03-31T09:20:04.730Z,3.562
2018-03-31T09:21:03.354Z,3.437
2018-03-31T09:22:03.899Z,3.312
2018-03-31T09:23:03.553Z,3.25
2018-03-31T09:24:04.163Z,3.187
2018-03-31T09:25:03.618Z,3.312
2018-03-31T09:26:03.049Z,3.25
2018-03-31T09:27:03.459Z,3.25
2018-03-31T09:28:03.484Z,3.312
2018-03-31T09:29:03.141Z,3.312
2018-03-31T09:30:03.754Z,3.25
2018-03-31T09:31:03.617Z,3.312
2018-03-31T09:32:03.189Z,3.437
2018-03-31T09:33:03.707Z,3.437
2018-03-31T09:34:03.494Z,3.437
2018-03-31T09:35:03.122Z,3.437
2018-03-31T09:36:03.642Z,3.5
2018-03-31T09:37:04.160Z,3.5
2018-03-31T09:38:03.568Z,3.437
2018-03-31T09:39:03.178Z,3.375
2018-03-31T09:40:03.658Z,3.5
2018-03-31T09:41:03.166Z,3.312
2018-03-31T09:42:03.558Z,3.437
2018-03-31T09:43:03.236Z,3.375
2018-03-31T09:44:03.727Z,3.5
2018-03-31T09:45:04.136Z,3.5
2018-03-31T09:46:03.465Z,3.5
2018-03-31T09:47:03.952Z,3.562
2018-03-31T09:48:03.547Z,3.5
2018-03-31T09:49:03.581Z,3.437
2018-03-31T09:50:03.107Z,3.437
2018-03-31T09:51:03.823Z,3.437
2018-03-31T09:52:03.502Z,3.562
2018-03-31T09:53:03.998Z,3.625
2018-03-31T09:54:03.660Z,3.687
2018-03-31T09:55:03.450Z,3.75
2018-03-31T09:56:03.155Z,3.687
2018-03-31T09:57:03.830Z,3.687
2018-03-31T09:58:03.209Z,3.75
2018-03-31T09:59:03.695Z,3.812
2018-03-31T10:00:03.530Z,3.875
2018-03-31T10:01:03.669Z,3.875
2018-03-31T10:02:03.807Z,3.875
2018-03-31T10:03:03.318Z,3.875
2018-03-31T10:04:03.667Z,3.937
2018-03-31T10:05:03.232Z,3.875
2018-03-31T10:06:03.693Z,3.812
2018-03-31T10:07:03.296Z,3.812
2018-03-31T10:08:03.780Z,3.812
2018-03-31T10:09:04.612Z,3.625
2018-03-31T10:10:03.257Z,3.562
2018-03-31T10:11:03.697Z,3.625
2018-03-31T10:12:03.258Z,3.687
2018-03-31T10:13:03.665Z,3.687
2018-03-31T10:14:03.372Z,3.562
2018-03-31T10:15:03.897Z,3.5
2018-03-31T10:16:03.429Z,3.562
2018-03-31T10:17:03.566Z,3.5
2018-03-31T10:18:03.385Z,3.562
2018-03-31T10:19:03.965Z,3.562
2018-03-31T10:20:03.536Z,3.562
2018-03-31T10:21:04.100Z,3.625
2018-03-31T10:22:03.660Z,3.625
2018-03-31T10:23:03.127Z,3.625
2018-03-31T10:24:03.476Z,3.687
2018-03-31T10:25:03.826Z,3.75
2018-03-31T10:26:03.184Z,3.812
2018-03-31T10:27:03.644Z,3.875
2018-03-31T10:28:03.141Z,3.937
2018-03-31T10:29:03.584Z,3.812
2018-03-31T10:30:03.306Z,3.875
2018-03-31T10:31:03.898Z,4
2018-03-31T10:32:03.478Z,4.062
2018-03-31T10:33:03.839Z,4.062
2018-03-31T10:34:04.091Z,4.125
2018-03-31T10:35:03.586Z,4.25
2018-03-31T10:36:04.069Z,4.25
2018-03-31T10:37:03.763Z,4.25
2018-03-31T10:38:03.245Z,4.25
2018-03-31T10:39:04.017Z,4.375
2018-03-31T10:40:03.567Z,4.437
2018-03-31T10:41:03.998Z,4.562
2018-03-31T10:42:03.931Z,4.562
2018-03-31T10:43:04.495Z,4.437
2018-03-31T10:44:03.965Z,4.437
2018-03-31T10:45:03.750Z,4.437
2018-03-31T10:46:03.241Z,4.437
2018-03-31T10:47:03.655Z,4.5
2018-03-31T10:48:03.721Z,4.562
2018-03-31T10:49:03.564Z,4.375
2018-03-31T10:50:04.291Z,4.312
2018-03-31T10:51:03.692Z,4.25
2018-03-31T10:52:03.351Z,4.187
2018-03-31T10:53:03.802Z,4.187
2018-03-31T10:54:03.212Z,4.187
2018-03-31T10:55:03.748Z,4.187
2018-03-31T10:56:03.301Z,4.187
2018-03-31T10:57:03.423Z,4.187
2018-03-31T10:58:03.994Z,4.25
2018-03-31T10:59:03.611Z,4.187
2018-03-31T11:00:03.351Z,4.125
2018-03-31T11:01:03.214Z,4.187
2018-03-31T11:02:03.659Z,4.125
2018-03-31T11:03:03.196Z,4.125
2018-03-31T11:04:03.734Z,4.125
2018-03-31T11:05:03.474Z,4.125
2018-03-31T11:06:03.840Z,4.125
2018-03-31T11:07:03.436Z,4.125
2018-03-31T11:08:03.390Z,4.125
2018-03-31T11:09:03.423Z,4.125
2018-03-31T11:10:03.694Z,4.125
2018-03-31T11:11:03.136Z,4.125
2018-03-31T11:12:03.737Z,4.125
2018-03-31T11:13:03.234Z,4.062
2018-03-31T11:14:03.972Z,4.062
2018-03-31T11:15:03.630Z,4.125
2018-03-31T11:16:03.104Z,4.125
2018-03-31T11:17:03.832Z,4.062
2018-03-31T11:18:03.346Z,4
2018-03-31T11:19:03.972Z,4
2018-03-31T11:20:03.551Z,4
2018-03-31T11:21:03.329Z,4
2018-03-31T11:22:03.720Z,4
2018-03-31T11:23:03.820Z,3.937
2018-03-31T11:24:03.550Z,3.937
2018-03-31T11:25:03.288Z,3.937
2018-03-31T11:26:03.733Z,4
2018-03-31T11:27:03.062Z,4.062
2018-03-31T11:28:04.313Z,4.062
2018-03-31T11:29:04.327Z,4.062
2018-03-31T11:30:05.100Z,4.062
2018-03-31T11:31:03.352Z,4.062
2018-03-31T11:32:03.839Z,4.125
2018-03-31T11:33:03.292Z,4.187
2018-03-31T11:34:03.805Z,4.187
2018-03-31T11:35:03.234Z,4.187
2018-03-31T11:36:03.697Z,4.25
2018-03-31T11:37:03.231Z,4.375
2018-03-31T11:38:03.752Z,4.437
2018-03-31T11:39:03.737Z,4.562
2018-03-31T11:40:04.246Z,4.625
2018-03-31T11:41:03.558Z,4.562
2018-03-31T11:42:03.087Z,4.625
2018-03-31T11:43:04.545Z,4.625
2018-03-31T11:44:04.075Z,4.625
2018-03-31T11:45:03.720Z,4.687
2018-03-31T11:46:03.225Z,4.687
2018-03-31T11:47:03.746Z,4.75
2018-03-31T11:48:03.949Z,4.75
2018-03-31T11:49:03.395Z,4.75
2018-03-31T11:50:03.975Z,4.75
2018-03-31T11:51:03.484Z,4.75
2018-03-31T11:52:04.022Z,4.75
2018-03-31T11:53:03.560Z,4.875
2018-03-31T11:54:03.072Z,4.937
2018-03-31T11:55:03.604Z,4.937
2018-03-31T11:56:03.205Z,4.937
2018-03-31T11:57:03.717Z,4.875
2018-03-31T11:58:03.162Z,4.875
2018-03-31T11:59:03.651Z,4.875
2018-03-31T12:00:03.552Z,4.875
2018-03-31T12:01:03.396Z,4.875
2018-03-31T12:02:03.967Z,4.812
2018-03-31T12:03:03.339Z,4.812
2018-03-31T12:04:03.926Z,4.812
2018-03-31T12:05:03.586Z,4.875
2018-03-31T12:06:03.942Z,4.937
2018-03-31T12:07:03.408Z,5.062
2018-03-31T12:08:04.401Z,5.187
2018-03-31T12:09:03.942Z,5.312
2018-03-31T12:10:03.338Z,5.5
2018-03-31T12:11:03.187Z,5.5
2018-03-31T12:12:03.824Z,5.562
2018-03-31T12:13:03.665Z,5.562
2018-03-31T12:14:03.206Z,5.687
2018-03-31T12:15:03.815Z,5.687
2018-03-31T12:16:03.361Z,5.687
2018-03-31T12:17:04.198Z,5.75
2018-03-31T12:18:03.724Z,5.687
2018-03-31T12:19:03.125Z,5.75
2018-03-31T12:20:03.601Z,5.687
2018-03-31T12:21:03.187Z,5.75
2018-03-31T12:22:03.687Z,5.812
2018-03-31T12:23:03.248Z,5.812
2018-03-31T12:24:03.743Z,5.812
2018-03-31T12:25:03.211Z,5.75
2018-03-31T12:26:03.710Z,5.812
2018-03-31T12:27:03.125Z,5.812
2018-03-31T12:28:03.733Z,5.812
2018-03-31T12:29:03.134Z,5.875
2018-03-31T12:30:03.775Z,5.812
2018-03-31T12:31:03.736Z,5.812
2018-03-31T12:32:03.274Z,5.75
2018-03-31T12:33:03.859Z,5.687
2018-03-31T12:34:03.482Z,5.687
2018-03-31T12:35:03.985Z,5.687
2018-03-31T12:36:03.722Z,5.625
2018-03-31T12:37:03.291Z,5.562
2018-03-31T12:38:03.828Z,5.562
2018-03-31T12:39:03.410Z,5.5
2018-03-31T12:40:03.902Z,5.437
2018-03-31T12:41:03.815Z,5.437
2018-03-31T12:42:03.289Z,5.437
2018-03-31T12:43:03.830Z,5.437
2018-03-31T12:44:03.355Z,5.437
2018-03-31T12:45:03.857Z,5.375
2018-03-31T12:46:03.355Z,5.375
2018-03-31T12:47:03.810Z,5.375
2018-03-31T12:48:03.326Z,5.437
2018-03-31T12:49:03.901Z,5.5
2018-03-31T12:50:04.907Z,5.5
2018-03-31T12:51:03.451Z,5.5
2018-03-31T12:52:03.398Z,5.5
2018-03-31T12:53:03.810Z,5.562
2018-03-31T12:54:03.432Z,5.625
2018-03-31T12:55:03.950Z,5.687
2018-03-31T12:56:03.437Z,5.687
2018-03-31T12:57:03.994Z,5.75
2018-03-31T12:58:03.491Z,5.812
2018-03-31T12:59:03.868Z,5.75
2018-03-31T13:00:04.000Z,5.75
2018-03-31T13:01:03.377Z,5.687
2018-03-31T13:02:03.854Z,5.625
2018-03-31T13:03:03.383Z,5.687
2018-03-31T13:04:04.005Z,5.625